sensor_id;sensor_type;location;lat;lon;timestamp;temperature;humidity
30097;DHT22;16915;51.466;3.610;2023-06-24T00:00:04;18.50;99.90
30097;DHT22;16915;51.466;3.610;2023-06-24T00:02:35;18.50;99.90
30097;DHT22;16915;51.466;3.610;2023-06-24T00:05:04;18.50;99.90
30097;DHT22;16915;51.466;3.610;2023-06-24T00:07:31;18.50;99.90
30097;DHT22;16915;51.466;3.610;2023-06-24T00:09:57;18.40;99.90
30097;DHT22;16915;51.466;3.610;2023-06-24T00:12:22;18.40;99.90
30097;DHT22;16915;51.466;3.610;2023-06-24T00:14:49;18.30;99.90
30097;DHT22;16915;51.466;3.610;2023-06-24T00:17:15;18.30;99.90
30097;DHT22;16915;51.466;3.610;2023-06-24T00:19:42;18.30;99.90
30097;DHT22;16915;51.466;3.610;2023-06-24T00:22:09;18.30;99.90
30097;DHT22;16915;51.466;3.610;2023-06-24T00:24:35;18.20;99.90
30097;DHT22;16915;51.466;3.610;2023-06-24T00:27:00;18.20;99.90
30097;DHT22;16915;51.466;3.610;2023-06-24T00:29:26;18.20;99.90
30097;DHT22;16915;51.466;3.610;2023-06-24T00:31:52;18.10;99.90
30097;DHT22;16915;51.466;3.610;2023-06-24T00:34:17;18.00;99.90
30097;DHT22;16915;51.466;3.610;2023-06-24T00:36:45;18.00;99.90
30097;DHT22;16915;51.466;3.610;2023-06-24T00:39:12;18.00;99.90
30097;DHT22;16915;51.466;3.610;2023-06-24T00:41:38;17.90;99.90
30097;DHT22;16915;51.466;3.610;2023-06-24T00:44:03;17.90;99.90
30097;DHT22;16915;51.466;3.610;2023-06-24T00:46:29;17.90;99.90
30097;DHT22;16915;51.466;3.610;2023-06-24T00:48:58;17.90;99.90
30097;DHT22;16915;51.466;3.610;2023-06-24T00:51:24;17.90;99.90
30097;DHT22;16915;51.466;3.610;2023-06-24T00:53:58;17.80;99.90
30097;DHT22;16915;51.466;3.610;2023-06-24T00:56:31;17.80;99.90
30097;DHT22;16915;51.466;3.610;2023-06-24T00:58:59;17.80;99.90
30097;DHT22;16915;51.466;3.610;2023-06-24T01:01:30;17.80;99.90
30097;DHT22;16915;51.466;3.610;2023-06-24T01:03:59;17.80;99.90
30097;DHT22;16915;51.466;3.610;2023-06-24T01:06:26;17.70;99.90
30097;DHT22;16915;51.466;3.610;2023-06-24T01:08:58;17.70;99.90
30097;DHT22;16915;51.466;3.610;2023-06-24T01:11:26;17.70;99.90
30097;DHT22;16915;51.466;3.610;2023-06-24T01:13:52;17.70;99.90
30097;DHT22;16915;51.466;3.610;2023-06-24T01:34:32;17.40;99.90
30097;DHT22;16915;51.466;3.610;2023-06-24T01:37:19;17.40;99.90
30097;DHT22;16915;51.466;3.610;2023-06-24T01:40:10;17.40;99.90
30097;DHT22;16915;51.466;3.610;2023-06-24T01:42:39;17.40;99.90
30097;DHT22;16915;51.466;3.610;2023-06-24T01:45:07;17.30;99.90
30097;DHT22;16915;51.466;3.610;2023-06-24T01:47:34;17.30;99.90
30097;DHT22;16915;51.466;3.610;2023-06-24T01:50:01;17.30;99.90
30097;DHT22;16915;51.466;3.610;2023-06-24T01:52:29;17.20;99.90
30097;DHT22;16915;51.466;3.610;2023-06-24T01:54:56;17.20;99.90
30097;DHT22;16915;51.466;3.610;2023-06-24T01:57:24;17.20;99.90
30097;DHT22;16915;51.466;3.610;2023-06-24T01:59:53;17.10;99.90
30097;DHT22;16915;51.466;3.610;2023-06-24T02:02:19;17.10;99.90
30097;DHT22;16915;51.466;3.610;2023-06-24T02:04:46;17.10;99.90
30097;DHT22;16915;51.466;3.610;2023-06-24T02:07:13;17.00;99.90
30097;DHT22;16915;51.466;3.610;2023-06-24T02:09:39;17.00;99.90
30097;DHT22;16915;51.466;3.610;2023-06-24T02:12:07;17.00;99.90
30097;DHT22;16915;51.466;3.610;2023-06-24T02:14:35;17.00;99.90
30097;DHT22;16915;51.466;3.610;2023-06-24T02:17:04;17.00;99.90
30097;DHT22;16915;51.466;3.610;2023-06-24T02:19:30;16.90;99.90
30097;DHT22;16915;51.466;3.610;2023-06-24T02:21:58;16.90;99.90
30097;DHT22;16915;51.466;3.610;2023-06-24T02:24:28;16.90;99.90
30097;DHT22;16915;51.466;3.610;2023-06-24T02:26:56;16.80;99.90
30097;DHT22;16915;51.466;3.610;2023-06-24T02:29:26;16.70;99.90
30097;DHT22;16915;51.466;3.610;2023-06-24T02:31:52;16.70;99.90
30097;DHT22;16915;51.466;3.610;2023-06-24T02:34:18;16.70;99.90
30097;DHT22;16915;51.466;3.610;2023-06-24T02:36:43;16.70;99.90
30097;DHT22;16915;51.466;3.610;2023-06-24T02:39:09;16.70;99.90
30097;DHT22;16915;51.466;3.610;2023-06-24T02:41:35;16.70;99.90
30097;DHT22;16915;51.466;3.610;2023-06-24T02:44:01;16.70;99.90
30097;DHT22;16915;51.466;3.610;2023-06-24T02:46:27;16.60;99.90
30097;DHT22;16915;51.466;3.610;2023-06-24T02:48:56;16.50;99.90
30097;DHT22;16915;51.466;3.610;2023-06-24T02:51:22;16.50;99.90
30097;DHT22;16915;51.466;3.610;2023-06-24T02:53:49;16.50;99.90
30097;DHT22;16915;51.466;3.610;2023-06-24T02:56:15;16.50;99.90
30097;DHT22;16915;51.466;3.610;2023-06-24T02:58:47;16.50;99.90
30097;DHT22;16915;51.466;3.610;2023-06-24T03:01:14;16.40;99.90
30097;DHT22;16915;51.466;3.610;2023-06-24T03:03:41;16.40;99.90
30097;DHT22;16915;51.466;3.610;2023-06-24T03:06:07;16.40;99.90
30097;DHT22;16915;51.466;3.610;2023-06-24T03:08:38;16.30;99.90
30097;DHT22;16915;51.466;3.610;2023-06-24T03:11:04;16.30;99.90
30097;DHT22;16915;51.466;3.610;2023-06-24T03:13:30;16.30;99.90
30097;DHT22;16915;51.466;3.610;2023-06-24T03:15:55;16.30;99.90
30097;DHT22;16915;51.466;3.610;2023-06-24T03:18:21;16.30;99.90
30097;DHT22;16915;51.466;3.610;2023-06-24T03:20:47;16.30;99.90
30097;DHT22;16915;51.466;3.610;2023-06-24T03:23:12;16.30;99.90
30097;DHT22;16915;51.466;3.610;2023-06-24T03:25:38;16.30;99.90
30097;DHT22;16915;51.466;3.610;2023-06-24T03:28:03;16.20;99.90
30097;DHT22;16915;51.466;3.610;2023-06-24T03:30:32;16.20;99.90
30097;DHT22;16915;51.466;3.610;2023-06-24T03:32:58;16.20;99.90
30097;DHT22;16915;51.466;3.610;2023-06-24T03:35:24;16.20;99.90
30097;DHT22;16915;51.466;3.610;2023-06-24T03:37:49;16.20;99.90
30097;DHT22;16915;51.466;3.610;2023-06-24T03:40:15;16.10;99.90
30097;DHT22;16915;51.466;3.610;2023-06-24T03:42:41;16.10;99.90
30097;DHT22;16915;51.466;3.610;2023-06-24T03:45:07;16.10;99.90
30097;DHT22;16915;51.466;3.610;2023-06-24T03:47:32;16.10;99.90
30097;DHT22;16915;51.466;3.610;2023-06-24T03:49:58;16.10;99.90
30097;DHT22;16915;51.466;3.610;2023-06-24T03:52:24;16.10;99.90
30097;DHT22;16915;51.466;3.610;2023-06-24T03:54:49;16.10;99.90
30097;DHT22;16915;51.466;3.610;2023-06-24T03:57:15;16.10;99.90
30097;DHT22;16915;51.466;3.610;2023-06-24T03:59:41;16.10;99.90
30097;DHT22;16915;51.466;3.610;2023-06-24T04:02:06;16.20;99.90
30097;DHT22;16915;51.466;3.610;2023-06-24T04:04:35;16.20;99.90
30097;DHT22;16915;51.466;3.610;2023-06-24T04:07:03;16.20;99.90
30097;DHT22;16915;51.466;3.610;2023-06-24T04:09:35;16.30;99.90
30097;DHT22;16915;51.466;3.610;2023-06-24T04:12:01;16.30;99.90
30097;DHT22;16915;51.466;3.610;2023-06-24T04:14:28;16.40;99.90
30097;DHT22;16915;51.466;3.610;2023-06-24T04:16:53;16.50;99.90
30097;DHT22;16915;51.466;3.610;2023-06-24T04:19:19;16.50;99.90
30097;DHT22;16915;51.466;3.610;2023-06-24T04:21:44;16.50;99.90
30097;DHT22;16915;51.466;3.610;2023-06-24T04:24:10;16.50;99.90
30097;DHT22;16915;51.466;3.610;2023-06-24T04:26:36;16.50;99.90
30097;DHT22;16915;51.466;3.610;2023-06-24T04:29:01;16.50;99.90
30097;DHT22;16915;51.466;3.610;2023-06-24T04:31:27;16.40;99.90
30097;DHT22;16915;51.466;3.610;2023-06-24T04:33:53;16.50;99.90
30097;DHT22;16915;51.466;3.610;2023-06-24T04:36:19;16.50;99.90
30097;DHT22;16915;51.466;3.610;2023-06-24T04:38:44;16.50;99.90
30097;DHT22;16915;51.466;3.610;2023-06-24T04:41:10;16.50;99.90
30097;DHT22;16915;51.466;3.610;2023-06-24T04:43:36;16.60;99.90
30097;DHT22;16915;51.466;3.610;2023-06-24T04:46:02;16.70;99.90
30097;DHT22;16915;51.466;3.610;2023-06-24T04:48:27;16.70;99.90
30097;DHT22;16915;51.466;3.610;2023-06-24T04:50:53;16.70;99.90
30097;DHT22;16915;51.466;3.610;2023-06-24T04:53:20;16.80;99.90
30097;DHT22;16915;51.466;3.610;2023-06-24T04:55:46;16.90;99.90
30097;DHT22;16915;51.466;3.610;2023-06-24T04:58:12;17.00;99.90
30097;DHT22;16915;51.466;3.610;2023-06-24T05:00:37;17.00;99.90
30097;DHT22;16915;51.466;3.610;2023-06-24T05:03:03;17.00;99.90
30097;DHT22;16915;51.466;3.610;2023-06-24T05:05:29;17.10;99.90
30097;DHT22;16915;51.466;3.610;2023-06-24T05:07:54;17.10;99.90
30097;DHT22;16915;51.466;3.610;2023-06-24T05:10:20;17.20;99.90
30097;DHT22;16915;51.466;3.610;2023-06-24T05:12:48;17.30;99.90
30097;DHT22;16915;51.466;3.610;2023-06-24T05:15:14;17.40;99.90
30097;DHT22;16915;51.466;3.610;2023-06-24T05:17:40;17.40;99.90
30097;DHT22;16915;51.466;3.610;2023-06-24T05:20:06;17.70;99.90
30097;DHT22;16915;51.466;3.610;2023-06-24T05:22:31;17.90;99.90
30097;DHT22;16915;51.466;3.610;2023-06-24T05:24:57;18.00;99.90
30097;DHT22;16915;51.466;3.610;2023-06-24T05:27:23;18.10;99.90
30097;DHT22;16915;51.466;3.610;2023-06-24T05:29:48;18.20;99.90
30097;DHT22;16915;51.466;3.610;2023-06-24T05:32:14;18.30;99.90
30097;DHT22;16915;51.466;3.610;2023-06-24T05:34:40;18.40;99.90
30097;DHT22;16915;51.466;3.610;2023-06-24T05:37:05;18.60;99.90
30097;DHT22;16915;51.466;3.610;2023-06-24T05:39:31;18.80;99.90
30097;DHT22;16915;51.466;3.610;2023-06-24T05:41:57;19.00;99.90
30097;DHT22;16915;51.466;3.610;2023-06-24T05:44:22;19.20;99.90
30097;DHT22;16915;51.466;3.610;2023-06-24T05:46:48;19.40;99.90
30097;DHT22;16915;51.466;3.610;2023-06-24T05:49:14;19.70;99.90
30097;DHT22;16915;51.466;3.610;2023-06-24T05:51:40;19.70;99.90
30097;DHT22;16915;51.466;3.610;2023-06-24T05:54:05;19.80;99.90
30097;DHT22;16915;51.466;3.610;2023-06-24T05:56:33;19.90;99.90
30097;DHT22;16915;51.466;3.610;2023-06-24T05:58:58;20.10;99.90
30097;DHT22;16915;51.466;3.610;2023-06-24T06:01:24;20.10;99.90
30097;DHT22;16915;51.466;3.610;2023-06-24T06:03:50;20.20;99.90
30097;DHT22;16915;51.466;3.610;2023-06-24T06:06:15;20.00;99.90
30097;DHT22;16915;51.466;3.610;2023-06-24T06:08:41;20.00;99.90
30097;DHT22;16915;51.466;3.610;2023-06-24T06:11:06;19.90;99.90
30097;DHT22;16915;51.466;3.610;2023-06-24T06:13:33;19.80;99.90
30097;DHT22;16915;51.466;3.610;2023-06-24T06:15:59;19.60;99.90
30097;DHT22;16915;51.466;3.610;2023-06-24T06:18:24;19.60;99.90
30097;DHT22;16915;51.466;3.610;2023-06-24T06:20:50;19.70;99.90
30097;DHT22;16915;51.466;3.610;2023-06-24T06:23:16;19.80;99.90
30097;DHT22;16915;51.466;3.610;2023-06-24T06:25:43;20.00;99.90
30097;DHT22;16915;51.466;3.610;2023-06-24T06:28:09;20.20;99.90
30097;DHT22;16915;51.466;3.610;2023-06-24T06:30:34;20.30;99.90
30097;DHT22;16915;51.466;3.610;2023-06-24T06:33:00;20.30;99.90
30097;DHT22;16915;51.466;3.610;2023-06-24T06:35:25;20.30;99.90
30097;DHT22;16915;51.466;3.610;2023-06-24T06:37:51;20.30;99.90
30097;DHT22;16915;51.466;3.610;2023-06-24T06:40:22;20.30;99.90
30097;DHT22;16915;51.466;3.610;2023-06-24T06:42:48;20.40;99.90
30097;DHT22;16915;51.466;3.610;2023-06-24T06:45:14;20.60;99.90
30097;DHT22;16915;51.466;3.610;2023-06-24T06:47:40;20.70;99.90
30097;DHT22;16915;51.466;3.610;2023-06-24T06:50:06;20.70;99.90
30097;DHT22;16915;51.466;3.610;2023-06-24T06:52:32;20.80;99.90
30097;DHT22;16915;51.466;3.610;2023-06-24T06:54:58;20.90;99.90
30097;DHT22;16915;51.466;3.610;2023-06-24T06:57:23;20.80;99.90
30097;DHT22;16915;51.466;3.610;2023-06-24T06:59:50;20.90;99.90
30097;DHT22;16915;51.466;3.610;2023-06-24T07:02:19;20.80;99.90
30097;DHT22;16915;51.466;3.610;2023-06-24T07:04:45;20.70;99.90
30097;DHT22;16915;51.466;3.610;2023-06-24T07:07:10;20.80;99.90
30097;DHT22;16915;51.466;3.610;2023-06-24T07:09:37;21.00;99.90
30097;DHT22;16915;51.466;3.610;2023-06-24T07:12:03;21.10;99.90
30097;DHT22;16915;51.466;3.610;2023-06-24T07:14:28;21.20;99.90
30097;DHT22;16915;51.466;3.610;2023-06-24T07:16:54;21.30;99.90
30097;DHT22;16915;51.466;3.610;2023-06-24T07:19:20;21.40;99.90
30097;DHT22;16915;51.466;3.610;2023-06-24T07:21:45;21.40;99.90
30097;DHT22;16915;51.466;3.610;2023-06-24T07:24:11;21.60;99.90
30097;DHT22;16915;51.466;3.610;2023-06-24T07:26:36;21.80;99.90
30097;DHT22;16915;51.466;3.610;2023-06-24T07:29:05;21.90;99.90
30097;DHT22;16915;51.466;3.610;2023-06-24T07:31:31;22.10;99.90
30097;DHT22;16915;51.466;3.610;2023-06-24T07:33:57;22.50;99.90
30097;DHT22;16915;51.466;3.610;2023-06-24T07:36:22;22.70;99.90
30097;DHT22;16915;51.466;3.610;2023-06-24T07:38:48;22.80;99.90
30097;DHT22;16915;51.466;3.610;2023-06-24T07:41:13;22.60;99.90
30097;DHT22;16915;51.466;3.610;2023-06-24T07:43:39;22.70;99.90
30097;DHT22;16915;51.466;3.610;2023-06-24T07:46:05;22.70;99.90
30097;DHT22;16915;51.466;3.610;2023-06-24T07:48:30;22.50;99.90
30097;DHT22;16915;51.466;3.610;2023-06-24T07:50:56;22.50;99.90
30097;DHT22;16915;51.466;3.610;2023-06-24T07:53:21;22.60;99.90
30097;DHT22;16915;51.466;3.610;2023-06-24T07:55:47;22.80;99.90
30097;DHT22;16915;51.466;3.610;2023-06-24T07:58:12;22.60;99.90
30097;DHT22;16915;51.466;3.610;2023-06-24T08:00:38;22.50;99.90
30097;DHT22;16915;51.466;3.610;2023-06-24T08:03:04;22.60;99.90
30097;DHT22;16915;51.466;3.610;2023-06-24T08:05:29;22.60;99.90
30097;DHT22;16915;51.466;3.610;2023-06-24T08:07:55;22.50;99.90
30097;DHT22;16915;51.466;3.610;2023-06-24T08:10:20;22.40;99.90
30097;DHT22;16915;51.466;3.610;2023-06-24T08:12:46;22.30;99.90
30097;DHT22;16915;51.466;3.610;2023-06-24T08:15:12;22.30;99.90
30097;DHT22;16915;51.466;3.610;2023-06-24T08:17:38;22.40;99.90
30097;DHT22;16915;51.466;3.610;2023-06-24T08:20:04;22.60;99.90
30097;DHT22;16915;51.466;3.610;2023-06-24T08:22:30;22.70;99.90
30097;DHT22;16915;51.466;3.610;2023-06-24T08:24:56;22.80;99.90
30097;DHT22;16915;51.466;3.610;2023-06-24T08:27:21;23.00;99.90
30097;DHT22;16915;51.466;3.610;2023-06-24T08:29:47;23.30;99.90
30097;DHT22;16915;51.466;3.610;2023-06-24T08:32:13;23.60;99.90
30097;DHT22;16915;51.466;3.610;2023-06-24T08:34:39;23.70;99.90
30097;DHT22;16915;51.466;3.610;2023-06-24T08:37:04;23.70;99.90
30097;DHT22;16915;51.466;3.610;2023-06-24T08:39:30;23.70;99.90
30097;DHT22;16915;51.466;3.610;2023-06-24T08:41:55;23.80;99.90
30097;DHT22;16915;51.466;3.610;2023-06-24T08:44:21;23.70;99.90
30097;DHT22;16915;51.466;3.610;2023-06-24T08:46:48;23.80;99.90
30097;DHT22;16915;51.466;3.610;2023-06-24T08:52:02;24.40;99.90
30097;DHT22;16915;51.466;3.610;2023-06-24T08:54:30;24.60;99.90
30097;DHT22;16915;51.466;3.610;2023-06-24T08:56:56;24.80;99.90
30097;DHT22;16915;51.466;3.610;2023-06-24T08:59:22;24.90;99.90
30097;DHT22;16915;51.466;3.610;2023-06-24T09:01:48;25.00;99.90
30097;DHT22;16915;51.466;3.610;2023-06-24T09:04:13;25.10;99.90
30097;DHT22;16915;51.466;3.610;2023-06-24T09:06:39;25.00;99.90
30097;DHT22;16915;51.466;3.610;2023-06-24T09:09:04;25.00;99.90
30097;DHT22;16915;51.466;3.610;2023-06-24T09:11:30;24.90;99.90
30097;DHT22;16915;51.466;3.610;2023-06-24T09:13:58;24.90;99.90
30097;DHT22;16915;51.466;3.610;2023-06-24T09:16:24;24.90;99.90
30097;DHT22;16915;51.466;3.610;2023-06-24T09:18:51;24.50;99.90
30097;DHT22;16915;51.466;3.610;2023-06-24T09:21:27;24.20;99.90
30097;DHT22;16915;51.466;3.610;2023-06-24T09:23:58;24.30;99.90
30097;DHT22;16915;51.466;3.610;2023-06-24T09:26:27;24.40;99.90
30097;DHT22;16915;51.466;3.610;2023-06-24T09:28:55;24.50;99.90
30097;DHT22;16915;51.466;3.610;2023-06-24T09:31:23;24.70;99.90
30097;DHT22;16915;51.466;3.610;2023-06-24T09:33:49;24.80;99.90
30097;DHT22;16915;51.466;3.610;2023-06-24T09:36:15;25.00;99.90
30097;DHT22;16915;51.466;3.610;2023-06-24T09:38:42;24.90;99.90
30097;DHT22;16915;51.466;3.610;2023-06-24T09:41:10;24.70;99.90
30097;DHT22;16915;51.466;3.610;2023-06-24T09:43:36;24.70;99.90
30097;DHT22;16915;51.466;3.610;2023-06-24T09:46:03;24.60;99.90
30097;DHT22;16915;51.466;3.610;2023-06-24T09:48:30;24.40;99.90
30097;DHT22;16915;51.466;3.610;2023-06-24T09:50:59;24.50;99.90
30097;DHT22;16915;51.466;3.610;2023-06-24T09:53:35;24.60;99.90
30097;DHT22;16915;51.466;3.610;2023-06-24T09:56:04;24.90;99.90
30097;DHT22;16915;51.466;3.610;2023-06-24T09:58:37;25.10;99.90
30097;DHT22;16915;51.466;3.610;2023-06-24T10:01:04;25.30;99.90
30097;DHT22;16915;51.466;3.610;2023-06-24T10:03:33;25.50;99.90
30097;DHT22;16915;51.466;3.610;2023-06-24T10:06:01;25.40;99.90
30097;DHT22;16915;51.466;3.610;2023-06-24T10:08:29;25.60;99.90
30097;DHT22;16915;51.466;3.610;2023-06-24T10:10:55;25.60;99.90
30097;DHT22;16915;51.466;3.610;2023-06-24T10:13:25;25.80;99.90
30097;DHT22;16915;51.466;3.610;2023-06-24T10:15:51;26.00;99.90
30097;DHT22;16915;51.466;3.610;2023-06-24T10:18:37;26.20;99.90
30097;DHT22;16915;51.466;3.610;2023-06-24T10:21:07;26.30;99.90
30097;DHT22;16915;51.466;3.610;2023-06-24T10:26:10;26.40;99.90
30097;DHT22;16915;51.466;3.610;2023-06-24T10:31:50;26.60;99.90
30097;DHT22;16915;51.466;3.610;2023-06-24T10:34:24;26.90;99.90
30097;DHT22;16915;51.466;3.610;2023-06-24T10:36:55;27.00;99.90
30097;DHT22;16915;51.466;3.610;2023-06-24T10:45:15;27.40;99.90
30097;DHT22;16915;51.466;3.610;2023-06-24T10:47:43;27.70;99.90
30097;DHT22;16915;51.466;3.610;2023-06-24T10:50:14;27.50;99.90
30097;DHT22;16915;51.466;3.610;2023-06-24T10:52:42;27.60;99.90
30097;DHT22;16915;51.466;3.610;2023-06-24T10:55:08;27.90;99.90
30097;DHT22;16915;51.466;3.610;2023-06-24T10:57:34;28.30;99.90
30097;DHT22;16915;51.466;3.610;2023-06-24T11:00:01;28.70;99.90
30097;DHT22;16915;51.466;3.610;2023-06-24T11:02:27;28.80;99.90
30097;DHT22;16915;51.466;3.610;2023-06-24T11:04:54;28.80;99.90
30097;DHT22;16915;51.466;3.610;2023-06-24T11:07:21;29.00;99.90
30097;DHT22;16915;51.466;3.610;2023-06-24T11:09:54;29.10;99.90
30097;DHT22;16915;51.466;3.610;2023-06-24T11:12:25;29.10;99.90
30097;DHT22;16915;51.466;3.610;2023-06-24T11:14:52;29.50;99.90
30097;DHT22;16915;51.466;3.610;2023-06-24T11:17:20;29.90;99.90
30097;DHT22;16915;51.466;3.610;2023-06-24T11:19:46;30.30;99.90
30097;DHT22;16915;51.466;3.610;2023-06-24T11:22:12;30.70;99.90
30097;DHT22;16915;51.466;3.610;2023-06-24T11:24:37;30.90;99.90
30097;DHT22;16915;51.466;3.610;2023-06-24T11:27:05;31.10;99.90
30097;DHT22;16915;51.466;3.610;2023-06-24T11:29:32;31.20;99.90
30097;DHT22;16915;51.466;3.610;2023-06-24T11:31:58;31.30;99.90
30097;DHT22;16915;51.466;3.610;2023-06-24T11:34:24;31.40;99.90
30097;DHT22;16915;51.466;3.610;2023-06-24T11:36:50;31.70;99.90
30097;DHT22;16915;51.466;3.610;2023-06-24T11:39:23;31.90;99.90
30097;DHT22;16915;51.466;3.610;2023-06-24T11:41:50;32.30;99.90
30097;DHT22;16915;51.466;3.610;2023-06-24T11:44:20;32.40;99.90
30097;DHT22;16915;51.466;3.610;2023-06-24T11:46:46;32.50;99.90
30097;DHT22;16915;51.466;3.610;2023-06-24T11:49:12;31.90;99.90
30097;DHT22;16915;51.466;3.610;2023-06-24T11:51:46;31.60;99.90
30097;DHT22;16915;51.466;3.610;2023-06-24T11:54:20;31.90;99.90
30097;DHT22;16915;51.466;3.610;2023-06-24T11:56:55;32.40;99.90
30097;DHT22;16915;51.466;3.610;2023-06-24T11:59:23;32.40;99.90
30097;DHT22;16915;51.466;3.610;2023-06-24T12:01:55;32.60;99.90
30097;DHT22;16915;51.466;3.610;2023-06-24T12:04:27;33.20;99.90
30097;DHT22;16915;51.466;3.610;2023-06-24T12:06:53;33.30;99.90
30097;DHT22;16915;51.466;3.610;2023-06-24T12:09:19;33.20;99.90
30097;DHT22;16915;51.466;3.610;2023-06-24T12:11:45;33.50;99.90
30097;DHT22;16915;51.466;3.610;2023-06-24T12:14:10;33.90;99.90
30097;DHT22;16915;51.466;3.610;2023-06-24T12:16:37;34.20;99.90
30097;DHT22;16915;51.466;3.610;2023-06-24T12:19:03;34.30;99.90
30097;DHT22;16915;51.466;3.610;2023-06-24T12:21:29;34.40;99.90
30097;DHT22;16915;51.466;3.610;2023-06-24T12:23:54;34.30;99.90
30097;DHT22;16915;51.466;3.610;2023-06-24T12:26:20;34.70;99.90
30097;DHT22;16915;51.466;3.610;2023-06-24T12:28:45;34.70;99.90
30097;DHT22;16915;51.466;3.610;2023-06-24T12:31:11;34.60;99.20
30097;DHT22;16915;51.466;3.610;2023-06-24T12:33:37;34.60;99.20
30097;DHT22;16915;51.466;3.610;2023-06-24T12:36:03;34.90;99.60
30097;DHT22;16915;51.466;3.610;2023-06-24T12:38:28;35.00;99.70
30097;DHT22;16915;51.466;3.610;2023-06-24T12:40:54;35.00;99.20
30097;DHT22;16915;51.466;3.610;2023-06-24T12:43:19;35.30;99.50
30097;DHT22;16915;51.466;3.610;2023-06-24T12:45:45;35.50;98.50
30097;DHT22;16915;51.466;3.610;2023-06-24T12:48:12;36.00;97.90
30097;DHT22;16915;51.466;3.610;2023-06-24T12:50:38;36.20;96.80
30097;DHT22;16915;51.466;3.610;2023-06-24T12:53:04;36.50;96.10
30097;DHT22;16915;51.466;3.610;2023-06-24T12:55:30;36.70;95.90
30097;DHT22;16915;51.466;3.610;2023-06-24T12:57:56;36.80;95.20
30097;DHT22;16915;51.466;3.610;2023-06-24T13:00:23;37.20;94.90
30097;DHT22;16915;51.466;3.610;2023-06-24T13:02:50;37.50;95.20
30097;DHT22;16915;51.466;3.610;2023-06-24T13:05:16;37.80;93.90
30097;DHT22;16915;51.466;3.610;2023-06-24T13:07:42;37.80;93.40
30097;DHT22;16915;51.466;3.610;2023-06-24T13:10:09;37.80;92.60
30097;DHT22;16915;51.466;3.610;2023-06-24T13:12:35;37.50;92.20
30097;DHT22;16915;51.466;3.610;2023-06-24T13:15:02;37.60;91.80
30097;DHT22;16915;51.466;3.610;2023-06-24T13:17:30;37.80;91.90
30097;DHT22;16915;51.466;3.610;2023-06-24T13:19:56;37.80;92.00
30097;DHT22;16915;51.466;3.610;2023-06-24T13:22:22;37.90;91.30
30097;DHT22;16915;51.466;3.610;2023-06-24T13:24:47;38.30;91.60
30097;DHT22;16915;51.466;3.610;2023-06-24T13:27:13;38.40;90.50
30097;DHT22;16915;51.466;3.610;2023-06-24T13:29:38;38.20;91.00
30097;DHT22;16915;51.466;3.610;2023-06-24T13:32:04;38.50;88.90
30097;DHT22;16915;51.466;3.610;2023-06-24T13:34:30;38.50;89.60
30097;DHT22;16915;51.466;3.610;2023-06-24T13:36:56;38.50;89.70
30097;DHT22;16915;51.466;3.610;2023-06-24T13:39:21;38.70;88.00
30097;DHT22;16915;51.466;3.610;2023-06-24T13:41:49;38.90;84.90
30097;DHT22;16915;51.466;3.610;2023-06-24T13:44:15;38.70;84.70
30097;DHT22;16915;51.466;3.610;2023-06-24T13:46:41;38.80;84.50
30097;DHT22;16915;51.466;3.610;2023-06-24T13:49:07;39.10;83.40
30097;DHT22;16915;51.466;3.610;2023-06-24T13:51:33;38.90;81.10
30097;DHT22;16915;51.466;3.610;2023-06-24T13:53:59;39.10;83.10
30097;DHT22;16915;51.466;3.610;2023-06-24T13:56:25;39.50;83.00
30097;DHT22;16915;51.466;3.610;2023-06-24T13:58:52;39.70;78.40
30097;DHT22;16915;51.466;3.610;2023-06-24T14:01:18;39.40;77.60
30097;DHT22;16915;51.466;3.610;2023-06-24T14:03:44;39.30;78.10
30097;DHT22;16915;51.466;3.610;2023-06-24T14:06:13;39.50;78.20
30097;DHT22;16915;51.466;3.610;2023-06-24T14:08:40;39.70;75.90
30097;DHT22;16915;51.466;3.610;2023-06-24T14:11:06;39.70;73.40
30097;DHT22;16915;51.466;3.610;2023-06-24T14:13:31;39.60;72.80
30097;DHT22;16915;51.466;3.610;2023-06-24T14:15:57;39.70;73.30
30097;DHT22;16915;51.466;3.610;2023-06-24T14:18:25;39.50;71.50
30097;DHT22;16915;51.466;3.610;2023-06-24T14:20:51;39.80;70.50
30097;DHT22;16915;51.466;3.610;2023-06-24T14:23:17;39.90;71.80
30097;DHT22;16915;51.466;3.610;2023-06-24T14:25:43;40.20;69.90
30097;DHT22;16915;51.466;3.610;2023-06-24T14:28:09;40.50;67.70
30097;DHT22;16915;51.466;3.610;2023-06-24T14:30:34;40.50;67.90
30097;DHT22;16915;51.466;3.610;2023-06-24T14:33:00;40.30;69.10
30097;DHT22;16915;51.466;3.610;2023-06-24T14:35:26;40.30;70.70
30097;DHT22;16915;51.466;3.610;2023-06-24T14:37:52;40.20;69.80
30097;DHT22;16915;51.466;3.610;2023-06-24T14:40:17;40.20;69.10
30097;DHT22;16915;51.466;3.610;2023-06-24T14:42:43;40.20;68.50
30097;DHT22;16915;51.466;3.610;2023-06-24T14:45:09;39.90;69.90
30097;DHT22;16915;51.466;3.610;2023-06-24T14:47:35;39.70;69.40
30097;DHT22;16915;51.466;3.610;2023-06-24T14:50:01;39.50;70.90
30097;DHT22;16915;51.466;3.610;2023-06-24T14:52:27;39.70;68.80
30097;DHT22;16915;51.466;3.610;2023-06-24T14:54:52;40.10;69.20
30097;DHT22;16915;51.466;3.610;2023-06-24T14:57:18;40.10;68.70
30097;DHT22;16915;51.466;3.610;2023-06-24T14:59:44;40.20;68.30
30097;DHT22;16915;51.466;3.610;2023-06-24T15:02:09;40.20;68.40
30097;DHT22;16915;51.466;3.610;2023-06-24T15:04:38;40.30;69.80
30097;DHT22;16915;51.466;3.610;2023-06-24T15:07:04;40.40;69.30
30097;DHT22;16915;51.466;3.610;2023-06-24T15:09:30;40.50;67.20
30097;DHT22;16915;51.466;3.610;2023-06-24T15:11:55;40.60;68.60
30097;DHT22;16915;51.466;3.610;2023-06-24T15:14:21;40.70;68.80
30097;DHT22;16915;51.466;3.610;2023-06-24T15:16:46;40.90;66.90
30097;DHT22;16915;51.466;3.610;2023-06-24T15:19:12;40.80;65.80
30097;DHT22;16915;51.466;3.610;2023-06-24T15:21:38;40.80;66.90
30097;DHT22;16915;51.466;3.610;2023-06-24T15:24:04;40.90;65.90
30097;DHT22;16915;51.466;3.610;2023-06-24T15:26:30;40.80;65.40
30097;DHT22;16915;51.466;3.610;2023-06-24T15:28:56;40.80;67.10
30097;DHT22;16915;51.466;3.610;2023-06-24T15:31:22;40.80;66.60
30097;DHT22;16915;51.466;3.610;2023-06-24T15:33:47;41.20;66.20
30097;DHT22;16915;51.466;3.610;2023-06-24T15:36:13;41.40;66.40
30097;DHT22;16915;51.466;3.610;2023-06-24T15:38:38;41.40;65.50
30097;DHT22;16915;51.466;3.610;2023-06-24T15:41:05;41.30;65.70
30097;DHT22;16915;51.466;3.610;2023-06-24T15:43:30;41.10;67.10
30097;DHT22;16915;51.466;3.610;2023-06-24T15:45:56;41.30;66.20
30097;DHT22;16915;51.466;3.610;2023-06-24T15:48:22;41.40;66.00
30097;DHT22;16915;51.466;3.610;2023-06-24T15:50:47;41.40;65.70
30097;DHT22;16915;51.466;3.610;2023-06-24T15:53:13;41.30;64.40
30097;DHT22;16915;51.466;3.610;2023-06-24T15:55:40;41.10;64.40
30097;DHT22;16915;51.466;3.610;2023-06-24T15:58:05;40.70;65.60